Time;durP1;ratioP1;P1;durP2;ratioP2;P2;SDS_P1;SDS_P2;PMS_P1;PMS_P2;Temp;Humidity;BMP_temperature;BMP_pressure;BME280_temperature;BME280_humidity;BME280_pressure;Samples;Min_cycle;Max_cycle;Signal;HPM_P1;HPM_P2
2023/01/09 00:01:22;;;;;;;14.88;9.60;;;;;;;-145.63;100.00;61273.97;4821315;29;20046;-69
2023/01/09 00:03:48;;;;;;;18.15;9.60;;;;;;;-145.63;100.00;61273.97;4820062;29;20030;-69
2023/01/09 00:06:13;;;;;;;21.42;11.73;;;;;;;-145.63;100.00;61273.97;4820749;29;20038;-68
2023/01/09 00:08:39;;;;;;;18.40;10.48;;;;;;;-145.63;100.00;61273.97;4821209;29;20045;-67
2023/01/09 00:11:05;;;;;;;20.23;11.55;;;;;;;-145.63;100.00;61273.97;4821558;29;20252;-67
2023/01/09 00:13:30;;;;;;;20.33;11.52;;;;;;;-145.63;100.00;61273.97;4821669;29;20042;-68
2023/01/09 00:15:56;;;;;;;21.65;12.55;;;;;;;-145.63;100.00;61273.97;4821391;29;20073;-68
2023/01/09 00:18:22;;;;;;;25.67;13.13;;;;;;;-145.63;100.00;61273.97;4821153;29;20076;-67
2023/01/09 00:20:47;;;;;;;23.15;13.27;;;;;;;-145.63;100.00;61273.97;4821081;29;20322;-67
2023/01/09 00:23:13;;;;;;;24.50;14.32;;;;;;;-145.63;100.00;61273.97;4818015;29;20031;-68
2023/01/09 00:25:39;;;;;;;18.38;10.90;;;;;;;-145.63;100.00;61273.97;4821413;29;20105;-67
2023/01/09 00:28:05;;;;;;;26.40;15.07;;;;;;;-145.63;100.00;61273.97;4817421;29;20030;-68
2023/01/09 00:30:30;;;;;;;29.15;15.00;;;;;;;-145.63;100.00;61273.97;4819039;29;20335;-67
2023/01/09 00:32:56;;;;;;;25.25;15.00;;;;;;;-145.63;100.00;61273.97;4820898;29;20045;-67
2023/01/09 00:35:24;;;;;;;26.58;13.75;;;;;;;-145.63;100.00;61273.97;4821281;29;20038;-67
2023/01/09 00:37:49;;;;;;;23.73;14.02;;;;;;;-145.63;100.00;61273.97;4821089;29;20031;-69
2023/01/09 00:40:16;;;;;;;23.00;12.27;;;;;;;-145.63;100.00;61273.97;4803080;29;20035;-68
2023/01/09 00:42:45;;;;;;;25.52;14.57;;;;;;;-145.63;100.00;61273.97;4816923;29;20070;-67
2023/01/09 00:45:18;;;;;;;25.55;14.02;;;;;;;-145.63;100.00;61273.97;4821064;29;20039;-67
2023/01/09 00:47:48;;;;;;;26.33;15.25;;;;;;;-145.63;100.00;61273.97;4821225;29;20146;-67
2023/01/09 00:50:19;;;;;;;25.02;14.23;;;;;;;-145.63;100.00;61273.97;4818391;29;20054;-66
2023/01/09 00:52:45;;;;;;;;;;;;;;;-145.63;100.00;61273.97;4818703;29;20092;-66
2023/01/09 00:55:12;;;;;;;24.67;14.13;;;;;;;-145.63;100.00;61273.97;4818373;29;20252;-64
2023/01/09 00:57:38;;;;;;;25.65;14.52;;;;;;;-145.63;100.00;61273.97;4817904;29;20053;-67
2023/01/09 01:00:04;;;;;;;24.38;12.85;;;;;;;-145.63;100.00;61273.97;4818126;29;20295;-66
2023/01/09 01:02:30;;;;;;;30.98;15.88;;;;;;;-145.63;100.00;61273.97;4817752;29;20046;-67
2023/01/09 01:07:41;;;;;;;26.13;13.82;;;;;;;-145.63;100.00;61273.97;4818067;29;20035;-67
2023/01/09 01:10:09;;;;;;;27.02;13.95;;;;;;;-145.63;100.00;61273.97;4817869;29;20046;-65
2023/01/09 01:12:36;;;;;;;27.38;14.40;;;;;;;-145.63;100.00;61273.97;4817756;29;20083;-67
2023/01/09 01:15:02;;;;;;;23.67;12.70;;;;;;;-145.63;100.00;61273.97;4817881;29;20102;-68
2023/01/09 01:17:28;;;;;;;27.35;13.45;;;;;;;-145.63;100.00;61273.97;4817659;29;20038;-66
2023/01/09 01:19:54;;;;;;;26.40;13.98;;;;;;;-145.63;100.00;61273.97;4817774;29;20039;-67
2023/01/09 01:22:19;;;;;;;23.95;13.93;;;;;;;-145.63;100.00;61273.97;4832193;29;20043;-68
2023/01/09 01:24:45;;;;;;;24.65;13.60;;;;;;;-145.63;100.00;61273.97;4817617;29;20042;-67
2023/01/09 01:27:10;;;;;;;28.13;14.70;;;;;;;-145.63;100.00;61273.97;4817710;29;20066;-67
2023/01/09 01:29:36;;;;;;;24.20;13.63;;;;;;;-145.63;100.00;61273.97;4817539;29;20061;-68
2023/01/09 01:32:02;;;;;;;25.88;14.63;;;;;;;-145.63;100.00;61273.97;4817702;29;20038;-67
2023/01/09 01:34:28;;;;;;;24.20;13.07;;;;;;;-145.63;100.00;61273.97;4816582;29;20361;-67
2023/01/09 01:36:54;;;;;;;28.08;13.25;;;;;;;-145.63;100.00;61273.97;4817530;29;20336;-68
2023/01/09 01:39:20;;;;;;;24.50;13.98;;;;;;;-145.63;100.00;61273.97;4817349;29;20030;-68
2023/01/09 01:41:46;;;;;;;25.08;13.48;;;;;;;-145.63;100.00;61273.97;4817468;29;20042;-67
2023/01/09 01:44:49;;;;;;;23.67;12.68;;;;;;;-145.63;100.00;61273.97;4817332;29;20042;-67
2023/01/09 01:47:18;;;;;;;22.15;11.95;;;;;;;-145.63;100.00;61273.97;4817384;29;20058;-67
2023/01/09 01:49:44;;;;;;;24.83;12.48;;;;;;;-145.63;100.00;61273.97;4817353;29;20034;-67
2023/01/09 01:52:10;;;;;;;21.38;11.70;;;;;;;-145.63;100.00;61273.97;4816184;29;20038;-68
2023/01/09 01:54:36;;;;;;;20.23;12.05;;;;;;;-145.63;100.00;61273.97;4815582;29;20104;-68
2023/01/09 01:57:04;;;;;;;19.38;10.98;;;;;;;-145.63;100.00;61273.97;4817224;29;20043;-68
2023/01/09 01:59:38;;;;;;;20.50;12.10;;;;;;;-145.63;100.00;61273.97;4817186;29;20058;-67
2023/01/09 02:02:04;;;;;;;20.77;11.88;;;;;;;-145.63;100.00;61273.97;4816879;29;20111;-66
2023/01/09 02:04:34;;;;;;;21.42;12.88;;;;;;;-145.63;100.00;61273.97;4817498;29;20026;-67
2023/01/09 02:07:03;;;;;;;21.80;11.95;;;;;;;-145.63;100.00;61273.97;4817106;29;20035;-67
2023/01/09 02:09:29;;;;;;;21.98;11.73;;;;;;;-145.63;100.00;61273.97;4816873;29;20094;-67
2023/01/09 02:11:57;;;;;;;21.35;12.55;;;;;;;-145.63;100.00;61273.97;4816978;29;20046;-68
2023/01/09 02:14:26;;;;;;;25.08;13.90;;;;;;;-145.63;100.00;61273.97;4817041;29;20034;-68
2023/01/09 02:17:28;;;;;;;23.88;12.32;;;;;;;-145.63;100.00;61273.97;4816397;29;20244;-68
2023/01/09 02:20:17;;;;;;;25.67;13.57;;;;;;;-145.63;100.00;61273.97;4808471;29;20062;-68
2023/01/09 02:23:02;;;;;;;24.52;12.85;;;;;;;-145.63;100.00;61273.97;4813144;29;20106;-69
2023/01/09 02:25:41;;;;;;;21.02;11.98;;;;;;;-145.63;100.00;61273.97;4798787;29;20035;-68
2023/01/09 02:28:15;;;;;;;23.67;13.60;;;;;;;-145.63;100.00;61273.97;4814928;29;20041;-67
2023/01/09 02:31:05;;;;;;;22.67;13.82;;;;;;;-145.63;100.00;61273.97;4816353;29;20348;-66
2023/01/09 02:33:46;;;;;;;22.10;12.48;;;;;;;-145.63;100.00;61273.97;4816650;29;20038;-68
2023/01/09 02:36:38;;;;;;;23.35;13.32;;;;;;;-145.63;100.00;61273.97;4815472;29;20098;-67
2023/01/09 02:39:22;;;;;;;22.23;12.35;;;;;;;-145.63;100.00;61273.97;4816622;29;20319;-67
2023/01/09 02:42:04;;;;;;;19.70;11.45;;;;;;;-145.63;100.00;61273.97;4815236;29;20223;-67
2023/01/09 02:44:33;;;;;;;23.10;12.35;;;;;;;-145.63;100.00;61273.97;4815261;29;20040;-68
2023/01/09 02:47:19;;;;;;;21.63;12.13;;;;;;;-145.63;100.00;61273.97;4816419;29;20043;-66
2023/01/09 02:50:01;;;;;;;21.48;12.23;;;;;;;-145.63;100.00;61273.97;4816186;29;20195;-66
2023/01/09 02:52:48;;;;;;;23.50;12.90;;;;;;;-145.63;100.00;61273.97;4798747;29;20382;-67
2023/01/09 02:55:36;;;;;;;22.08;12.55;;;;;;;-145.63;100.00;61273.97;4814881;29;20222;-67
2023/01/09 02:58:18;;;;;;;25.13;12.90;;;;;;;-145.63;100.00;61273.97;4816096;29;20387;-69
2023/01/09 03:00:58;;;;;;;29.23;12.65;;;;;;;-145.63;100.00;61273.97;4811047;29;20039;-69
2023/01/09 03:03:37;;;;;;;25.27;13.48;;;;;;;-145.63;100.00;61273.97;4815749;29;20043;-66
2023/01/09 03:06:28;;;;;;;27.17;13.23;;;;;;;-145.63;100.00;61273.97;4816076;29;20042;-67
2023/01/09 03:09:00;;;;;;;23.58;12.57;;;;;;;-145.63;100.00;61273.97;4816252;29;20046;-67
2023/01/09 03:11:29;;;;;;;21.67;11.93;;;;;;;-145.63;100.00;61273.97;4814777;29;20035;-67
2023/01/09 03:14:02;;;;;;;23.50;11.85;;;;;;;-145.63;100.00;61273.97;4815603;29;20041;-67
2023/01/09 03:16:32;;;;;;;22.05;11.65;;;;;;;-145.63;100.00;61273.97;4798062;29;20031;-67
2023/01/09 03:19:00;;;;;;;22.50;11.70;;;;;;;-145.63;100.00;61273.97;4812268;29;20053;-67
2023/01/09 03:21:27;;;;;;;23.63;11.82;;;;;;;-145.63;100.00;61273.97;4815982;29;20039;-68
2023/01/09 03:24:00;;;;;;;23.95;12.85;;;;;;;-145.63;100.00;61273.97;4814664;29;20023;-67
2023/01/09 03:26:30;;;;;;;20.52;11.50;;;;;;;-145.63;100.00;61273.97;4815831;29;20283;-68
2023/01/09 03:28:56;;;;;;;18.38;10.07;;;;;;;-145.63;100.00;61273.97;4816016;29;20062;-66
2023/01/09 03:31:22;;;;;;;18.10;9.93;;;;;;;-145.63;100.00;61273.97;4815638;29;20195;-67
2023/01/09 03:33:47;;;;;;;18.60;9.70;;;;;;;-145.63;100.00;61273.97;4815770;29;20084;-66
2023/01/09 03:36:15;;;;;;;18.08;8.93;;;;;;;-145.63;100.00;61273.97;4815695;29;20042;-67
2023/01/09 03:38:40;;;;;;;18.55;9.70;;;;;;;-145.63;100.00;61273.97;4815565;29;20027;-66
2023/01/09 03:41:07;;;;;;;15.43;9.05;;;;;;;-145.63;100.00;61273.97;4815502;29;20050;-67
2023/01/09 03:43:32;;;;;;;19.33;8.70;;;;;;;-145.63;100.00;61273.97;4815766;29;20047;-68
2023/01/09 03:45:59;;;;;;;15.82;9.63;;;;;;;-145.63;100.00;61273.97;4815685;29;20071;-67
2023/01/09 03:48:24;;;;;;;15.00;8.70;;;;;;;-145.63;100.00;61273.97;4815752;29;20062;-66
2023/01/09 03:50:52;;;;;;;18.08;9.07;;;;;;;-145.63;100.00;61273.97;4815441;29;20035;-66
2023/01/09 03:53:18;;;;;;;17.35;9.13;;;;;;;-145.63;100.00;61273.97;4815608;29;20098;-67
2023/01/09 03:55:49;;;;;;;17.15;9.60;;;;;;;-145.63;100.00;61273.97;4815647;29;20222;-66
2023/01/09 03:58:17;;;;;;;15.75;9.02;;;;;;;-145.63;100.00;61273.97;4815617;29;20051;-67
2023/01/09 04:00:45;;;;;;;19.63;10.63;;;;;;;-145.63;100.00;61273.97;4813856;29;20212;-65
2023/01/09 04:03:11;;;;;;;18.88;11.02;;;;;;;-145.63;100.00;61273.97;4806437;29;20202;-66
2023/01/09 04:05:37;;;;;;;19.13;10.10;;;;;;;-145.63;100.00;61273.97;4815255;29;20036;-66
2023/01/09 04:08:03;;;;;;;18.88;9.98;;;;;;;-145.63;100.00;61273.97;4815575;29;20338;-67
2023/01/09 04:10:29;;;;;;;20.65;10.63;;;;;;;-145.63;100.00;61273.97;4807698;29;20034;-67
2023/01/09 04:12:55;;;;;;;19.35;9.32;;;;;;;-145.63;100.00;61273.97;4815026;29;20047;-68
2023/01/09 04:15:21;;;;;;;18.65;10.32;;;;;;;-145.63;100.00;61273.97;4815147;29;20038;-66
2023/01/09 04:17:46;;;;;;;19.45;9.60;;;;;;;-145.63;100.00;61273.97;4814942;29;20052;-66
2023/01/09 04:20:12;;;;;;;23.13;11.18;;;;;;;-145.63;100.00;61273.97;4815021;29;20047;-67
2023/01/09 04:22:38;;;;;;;21.58;11.57;;;;;;;-145.63;100.00;61273.97;4815363;29;20035;-65
2023/01/09 04:25:05;;;;;;;21.92;11.80;;;;;;;-145.63;100.00;61273.97;4817328;29;20038;-67
2023/01/09 04:27:30;;;;;;;25.25;10.95;;;;;;;-145.63;100.00;61273.97;4818443;29;20034;-67
2023/01/09 04:29:56;;;;;;;20.88;10.45;;;;;;;-145.63;100.00;61273.97;4818532;29;20113;-66
2023/01/09 04:32:22;;;;;;;18.63;9.50;;;;;;;-145.63;100.00;61273.97;4806876;29;20223;-67
2023/01/09 04:34:47;;;;;;;18.42;9.38;;;;;;;-145.63;100.00;61273.97;4818347;29;20050;-67
2023/01/09 04:37:13;;;;;;;21.60;10.30;;;;;;;-145.63;100.00;61273.97;4807684;29;20233;-68
2023/01/09 04:39:42;;;;;;;21.33;10.10;;;;;;;-145.63;100.00;61273.97;4800113;30;20055;-68
2023/01/09 04:42:08;;;;;;;22.00;8.77;;;;;;;-145.63;100.00;61273.97;4807873;29;20084;-66
2023/01/09 04:44:33;;;;;;;22.67;11.15;;;;;;;-145.63;100.00;61273.97;4818411;29;20169;-68
2023/01/09 04:46:59;;;;;;;20.63;10.38;;;;;;;-145.63;100.00;61273.97;4818583;29;20087;-68
2023/01/09 04:49:25;;;;;;;21.58;11.52;;;;;;;-145.63;100.00;61273.97;4818334;29;20031;-68
2023/01/09 04:51:50;;;;;;;19.58;10.32;;;;;;;-145.63;100.00;61273.97;4818149;29;20035;-67
2023/01/09 04:54:16;;;;;;;22.60;11.07;;;;;;;-145.63;100.00;61273.97;4818223;29;20050;-67
2023/01/09 04:56:42;;;;;;;17.20;8.88;;;;;;;-145.63;100.00;61273.97;4818171;29;20064;-68
2023/01/09 04:59:08;;;;;;;16.65;9.80;;;;;;;-145.63;100.00;61273.97;4818079;29;20031;-67
2023/01/09 05:01:34;;;;;;;17.17;9.80;;;;;;;-145.63;100.00;61273.97;4818077;29;20027;-67
2023/01/09 05:04:00;;;;;;;17.98;9.23;;;;;;;-145.63;100.00;61273.97;4818028;29;20322;-68
2023/01/09 05:06:26;;;;;;;21.15;10.25;;;;;;;-145.63;100.00;61273.97;4818058;29;20039;-69
2023/01/09 05:08:52;;;;;;;20.30;10.20;;;;;;;-145.63;100.00;61273.97;4817966;29;20161;-68
2023/01/09 05:11:17;;;;;;;18.10;9.63;;;;;;;-145.63;100.00;61273.97;4818027;29;20045;-68
2023/01/09 05:13:43;;;;;;;14.15;8.65;;;;;;;-145.63;100.00;61273.97;4816519;29;20027;-69
2023/01/09 05:16:09;;;;;;;13.85;7.55;;;;;;;-145.63;100.00;61273.97;4818324;29;20038;-69
2023/01/09 05:18:35;;;;;;;18.92;9.02;;;;;;;-145.63;100.00;61273.97;4816692;29;20129;-67
2023/01/09 05:21:00;;;;;;;16.40;8.30;;;;;;;-145.63;100.00;61273.97;4817703;29;20272;-68
2023/01/09 05:23:26;;;;;;;18.27;9.10;;;;;;;-145.63;100.00;61273.97;4817705;29;20196;-66
2023/01/09 05:25:51;;;;;;;17.92;9.63;;;;;;;-145.63;100.00;61273.97;4817846;29;20034;-67
2023/01/09 05:28:17;;;;;;;21.95;10.23;;;;;;;-145.63;100.00;61273.97;4804583;29;20046;-67
2023/01/09 05:30:43;;;;;;;25.90;13.80;;;;;;;-145.63;100.00;61273.97;4811041;29;20114;-66
2023/01/09 05:33:09;;;;;;;21.38;10.27;;;;;;;-145.63;100.00;61273.97;4816514;29;20030;-66
2023/01/09 05:35:34;;;;;;;17.55;9.57;;;;;;;-145.63;100.00;61273.97;4817133;29;20066;-64
2023/01/09 05:38:00;;;;;;;20.75;10.40;;;;;;;-145.63;100.00;61273.97;4817643;29;20039;-64
2023/01/09 05:40:25;;;;;;;18.58;9.75;;;;;;;-145.63;100.00;61273.97;4817503;29;20080;-65
2023/01/09 05:42:51;;;;;;;17.77;9.52;;;;;;;-145.63;100.00;61273.97;4817360;29;20050;-64
2023/01/09 05:45:17;;;;;;;18.75;10.10;;;;;;;-145.63;100.00;61273.97;4816801;29;20044;-65
2023/01/09 05:47:45;;;;;;;19.35;9.77;;;;;;;-145.63;100.00;61273.97;4817236;29;20039;-65
2023/01/09 05:50:12;;;;;;;18.42;9.73;;;;;;;-145.63;100.00;61273.97;4816939;29;20038;-66
2023/01/09 05:52:38;;;;;;;18.13;9.32;;;;;;;-145.63;100.00;61273.97;4817265;29;20058;-66
2023/01/09 05:55:04;;;;;;;21.45;9.45;;;;;;;-145.63;100.00;61273.97;4816223;29;20031;-67
2023/01/09 05:57:30;;;;;;;17.27;9.35;;;;;;;-145.63;100.00;61273.97;4817192;29;20337;-66
2023/01/09 05:59:56;;;;;;;17.33;10.05;;;;;;;-145.63;100.00;61273.97;4817129;29;20034;-67
2023/01/09 06:02:21;;;;;;;18.05;8.90;;;;;;;-145.63;100.00;61273.97;4813182;29;20035;-67
2023/01/09 06:04:47;;;;;;;13.90;7.35;;;;;;;-145.63;100.00;61273.97;4816154;29;20042;-67
2023/01/09 06:07:12;;;;;;;18.92;9.73;;;;;;;-145.63;100.00;61273.97;4816818;29;20034;-67
2023/01/09 06:09:38;;;;;;;17.95;9.52;;;;;;;-145.63;100.00;61273.97;4811407;29;20027;-67
2023/01/09 06:12:04;;;;;;;19.73;10.40;;;;;;;-145.63;100.00;61273.97;4805792;29;20050;-66
2023/01/09 06:14:29;;;;;;;17.90;10.23;;;;;;;-145.63;100.00;61273.97;4815794;29;20034;-67
2023/01/09 06:16:55;;;;;;;22.48;11.07;;;;;;;-145.63;100.00;61273.97;4809470;29;20077;-66
2023/01/09 06:19:20;;;;;;;21.63;9.95;;;;;;;-145.63;100.00;61273.97;4813766;29;20073;-67
2023/01/09 06:21:46;;;;;;;24.13;12.05;;;;;;;-145.63;100.00;61273.97;4812363;29;20059;-66
2023/01/09 06:24:11;;;;;;;23.15;11.60;;;;;;;-145.63;100.00;61273.97;4815539;29;20091;-66
2023/01/09 06:26:37;;;;;;;17.25;9.57;;;;;;;-145.63;100.00;61273.97;4816711;29;20207;-68
2023/01/09 06:29:03;;;;;;;25.83;11.90;;;;;;;-145.63;100.00;61273.97;4815701;29;20047;-67
2023/01/09 06:31:29;;;;;;;23.27;11.15;;;;;;;-145.63;100.00;61273.97;4815879;29;20030;-67
2023/01/09 06:33:54;;;;;;;23.45;9.90;;;;;;;-145.63;100.00;61273.97;4812477;29;20223;-67
2023/01/09 06:36:21;;;;;;;17.20;9.68;;;;;;;-145.63;100.00;61273.97;4809058;29;20111;-66
2023/01/09 06:38:46;;;;;;;21.50;9.15;;;;;;;-145.63;100.00;61273.97;4814978;29;20046;-68
2023/01/09 06:41:12;;;;;;;16.45;9.55;;;;;;;-145.63;100.00;61273.97;4815880;29;20037;-68
2023/01/09 06:43:38;;;;;;;18.80;9.57;;;;;;;-145.63;100.00;61273.97;4816459;29;20219;-67
2023/01/09 06:46:06;;;;;;;19.77;9.55;;;;;;;-145.63;100.00;61273.97;4816346;29;20034;-67
2023/01/09 06:48:32;;;;;;;15.60;8.80;;;;;;;-145.63;100.00;61273.97;4815670;29;20058;-66
2023/01/09 06:50:58;;;;;;;20.75;9.95;;;;;;;-145.63;100.00;61273.97;4816086;29;20031;-66
2023/01/09 06:53:24;;;;;;;17.40;9.75;;;;;;;-145.63;100.00;61273.97;4815955;29;20091;-68
2023/01/09 06:55:49;;;;;;;19.95;10.95;;;;;;;-145.63;100.00;61273.97;4813368;29;20254;-66
2023/01/09 06:58:15;;;;;;;18.60;9.45;;;;;;;-145.63;100.00;61273.97;4809658;29;20035;-67
2023/01/09 07:00:41;;;;;;;18.80;10.10;;;;;;;-145.63;100.00;61273.97;4807388;29;20026;-67
2023/01/09 07:03:08;;;;;;;18.25;9.65;;;;;;;-145.63;100.00;61273.97;4809821;29;20032;-67
2023/01/09 07:05:39;;;;;;;16.40;9.20;;;;;;;-145.63;100.00;61273.97;4807325;29;20035;-66
2023/01/09 07:08:05;;;;;;;18.85;10.15;;;;;;;-145.63;100.00;61273.97;4806968;29;20035;-66
2023/01/09 07:10:31;;;;;;;16.95;9.55;;;;;;;-145.63;100.00;61273.97;4811398;29;20027;-67
2023/01/09 07:12:56;;;;;;;14.95;8.00;;;;;;;-145.63;100.00;61273.97;4808938;29;20149;-67
2023/01/09 07:15:22;;;;;;;16.23;9.02;;;;;;;-145.63;100.00;61273.97;4806948;29;20031;-66
2023/01/09 07:17:50;;;;;;;16.15;8.18;;;;;;;-145.63;100.00;61273.97;4809720;29;20260;-67
2023/01/09 07:20:16;;;;;;;16.55;9.10;;;;;;;-145.63;100.00;61273.97;4809083;29;20038;-67
2023/01/09 07:22:43;;;;;;;19.20;9.93;;;;;;;-145.63;100.00;61273.97;4806966;29;20346;-66
2023/01/09 07:25:08;;;;;;;16.50;8.98;;;;;;;-145.63;100.00;61273.97;4807725;29;20146;-68
2023/01/09 07:27:34;;;;;;;15.95;9.68;;;;;;;-145.63;100.00;61273.97;4810629;29;20363;-68
2023/01/09 07:29:59;;;;;;;17.45;9.30;;;;;;;-145.63;100.00;61273.97;4807350;29;20027;-67
2023/01/09 07:32:25;;;;;;;14.55;7.90;;;;;;;-145.63;100.00;61273.97;4807287;29;20043;-68
2023/01/09 07:34:51;;;;;;;17.70;9.40;;;;;;;-145.63;100.00;61273.97;4805067;29;20055;-67
2023/01/09 07:37:17;;;;;;;16.92;9.63;;;;;;;-145.63;100.00;61273.97;4808807;29;20031;-68
2023/01/09 07:39:43;;;;;;;16.90;8.40;;;;;;;-145.63;100.00;61273.97;4810624;29;20019;-66
2023/01/09 07:42:09;;;;;;;18.92;9.70;;;;;;;-145.63;100.00;61273.97;4814833;29;20047;-68
2023/01/09 07:44:35;;;;;;;16.33;9.48;;;;;;;-145.63;100.00;61273.97;4814087;29;20042;-67
2023/01/09 07:47:01;;;;;;;15.93;8.43;;;;;;;-145.63;100.00;61273.97;4802679;29;20032;-67
2023/01/09 07:49:26;;;;;;;15.48;9.07;;;;;;;-145.63;100.00;61273.97;4810678;29;20035;-66
2023/01/09 07:51:52;;;;;;;17.38;8.93;;;;;;;-145.63;100.00;61273.97;4810829;29;20062;-67
2023/01/09 07:54:17;;;;;;;15.35;9.70;;;;;;;-145.63;100.00;61273.97;4811812;29;20031;-66
2023/01/09 07:56:43;;;;;;;13.70;7.85;;;;;;;-145.63;100.00;61273.97;4811250;29;20087;-68
2023/01/09 07:59:08;;;;;;;15.88;9.38;;;;;;;-145.63;100.00;61273.97;4811134;29;20035;-66
2023/01/09 08:01:34;;;;;;;16.88;9.35;;;;;;;-145.63;100.00;61273.97;4812885;29;20042;-66
2023/01/09 08:04:00;;;;;;;16.08;8.73;;;;;;;-145.63;100.00;61273.97;4812871;29;20039;-67
2023/01/09 08:06:26;;;;;;;17.83;9.25;;;;;;;-145.63;100.00;61273.97;4813416;29;20384;-66
2023/01/09 08:08:51;;;;;;;16.55;8.38;;;;;;;-145.63;100.00;61273.97;4813419;29;20030;-66
2023/01/09 08:11:17;;;;;;;18.90;8.55;;;;;;;-145.63;100.00;61273.97;4810453;29;20025;-65
2023/01/09 08:13:43;;;;;;;16.58;9.00;;;;;;;-145.63;100.00;61273.97;4814104;29;20023;-65
2023/01/09 08:16:08;;;;;;;19.90;9.38;;;;;;;-145.63;100.00;61273.97;4813221;29;20072;-65
2023/01/09 08:18:34;;;;;;;18.13;8.45;;;;;;;-145.63;100.00;61273.97;4815704;29;20074;-66
2023/01/09 08:20:59;;;;;;;19.73;10.02;;;;;;;-145.63;100.00;61273.97;4813944;29;20060;-67
2023/01/09 08:23:25;;;;;;;18.83;7.82;;;;;;;-145.63;100.00;61273.97;4814892;29;20035;-66
2023/01/09 08:25:52;;;;;;;14.48;7.68;;;;;;;-145.63;100.00;61273.97;4818179;29;20265;-66
2023/01/09 08:28:18;;;;;;;19.92;9.05;;;;;;;-145.63;100.00;61273.97;4815476;29;20046;-64
2023/01/09 08:30:43;;;;;;;17.65;8.68;;;;;;;-145.63;100.00;61273.97;4810233;29;20027;-64
2023/01/09 08:33:09;;;;;;;18.48;8.60;;;;;;;-145.63;100.00;61273.97;4808664;29;20051;-63
2023/01/09 08:35:36;;;;;;;12.57;6.93;;;;;;;-145.63;100.00;61273.97;4812540;29;20039;-65
2023/01/09 08:38:01;;;;;;;14.20;7.53;;;;;;;-145.63;100.00;61273.97;4816498;29;20093;-66
2023/01/09 08:40:27;;;;;;;16.35;8.35;;;;;;;-145.63;100.00;61273.97;4826821;29;20054;-64
2023/01/09 08:56:07;;;;;;;15.68;8.93;;;;;;;-145.63;100.00;61273.97;4191602;27;20070;-63
2023/01/09 08:58:33;;;;;;;18.27;8.93;;;;;;;-145.63;100.00;61273.97;4817988;29;20035;-61
2023/01/09 09:03:34;;;;;;;17.88;9.38;;;;;;;-145.63;100.00;61273.97;4672103;27;20070;-63
2023/01/09 09:06:00;;;;;;;17.58;9.07;;;;;;;-145.63;100.00;61273.97;4833457;29;20058;-63
2023/01/09 09:08:25;;;;;;;18.55;9.10;;;;;;;-145.63;100.00;61273.97;4817432;29;20050;-64
2023/01/09 09:10:51;;;;;;;15.73;8.30;;;;;;;-145.63;100.00;61273.97;4838082;29;20228;-63
2023/01/09 09:13:16;;;;;;;16.50;9.55;;;;;;;-145.63;100.00;61273.97;4825579;29;20026;-63
2023/01/09 09:15:42;;;;;;;16.05;8.52;;;;;;;-145.63;100.00;61273.97;4862485;29;20037;-64
2023/01/09 09:18:08;;;;;;;15.30;8.35;;;;;;;-145.63;100.00;61273.97;4842170;29;20083;-64
2023/01/09 09:20:36;;;;;;;20.70;8.65;;;;;;;-145.63;100.00;61273.97;4851930;29;20022;-64
2023/01/09 09:23:02;;;;;;;15.02;8.40;;;;;;;-145.63;100.00;61273.97;4816543;29;20087;-63
2023/01/09 09:25:28;;;;;;;14.57;8.13;;;;;;;-145.63;100.00;61273.97;4823197;29;20094;-64
2023/01/09 09:27:56;;;;;;;13.50;7.88;;;;;;;-145.63;100.00;61273.97;4822270;29;20199;-63
2023/01/09 09:30:23;;;;;;;13.43;8.27;;;;;;;-145.63;100.00;61273.97;4818323;29;20353;-63
2023/01/09 09:32:49;;;;;;;14.02;7.55;;;;;;;-145.63;100.00;61273.97;4829312;29;20072;-63
2023/01/09 09:35:19;;;;;;;6.97;4.30;;;;;;;-145.63;100.00;61273.97;4823694;29;20330;-63
2023/01/09 09:37:55;;;;;;;14.45;7.28;;;;;;;-145.63;100.00;61273.97;4831834;29;20057;-64
2023/01/09 09:40:42;;;;;;;20.13;8.13;;;;;;;-145.63;100.00;61273.97;4834125;29;20045;-63
2023/01/09 09:46:19;;;;;;;14.35;7.18;;;;;;;-145.63;100.00;61273.97;4829941;29;20058;-64
2023/01/09 09:48:52;;;;;;;17.65;8.07;;;;;;;-145.63;100.00;61273.97;4826839;29;20171;-64
2023/01/09 09:51:29;;;;;;;13.27;7.70;;;;;;;-145.63;100.00;61273.97;4828739;29;20095;-65
2023/01/09 09:54:00;;;;;;;16.95;6.38;;;;;;;-145.63;100.00;61273.97;4819327;29;20234;-64
2023/01/09 09:56:31;;;;;;;16.50;8.90;;;;;;;-145.63;100.00;61273.97;4841803;29;20089;-64
2023/01/09 09:59:20;;;;;;;16.13;8.55;;;;;;;-145.63;100.00;61273.97;4844704;29;20060;-64
2023/01/09 10:01:54;;;;;;;17.55;8.65;;;;;;;-145.63;100.00;61273.97;4837740;29;20110;-64
2023/01/09 10:04:22;;;;;;;13.52;8.02;;;;;;;-145.63;100.00;61273.97;4830722;29;20034;-63
2023/01/09 10:07:08;;;;;;;12.52;6.75;;;;;;;-145.63;100.00;61273.97;4842336;29;20034;-63
2023/01/09 10:09:36;;;;;;;15.73;8.55;;;;;;;-145.63;100.00;61273.97;4826683;29;20103;-64
2023/01/09 10:12:27;;;;;;;15.52;8.68;;;;;;;-145.63;100.00;61273.97;4823325;29;20188;-63
2023/01/09 10:14:58;;;;;;;16.08;9.35;;;;;;;-145.63;100.00;61273.97;4830251;29;20066;-64
2023/01/09 10:17:46;;;;;;;17.10;9.00;;;;;;;-145.63;100.00;61273.97;4816823;29;20042;-64
2023/01/09 10:20:23;;;;;;;17.05;9.45;;;;;;;-145.63;100.00;61273.97;4798506;30;20103;-63
2023/01/09 10:23:01;;;;;;;16.50;9.50;;;;;;;-145.63;100.00;61273.97;4815699;29;20042;-63
2023/01/09 10:25:30;;;;;;;15.75;9.13;;;;;;;-145.63;100.00;61273.97;4816470;29;20047;-65
2023/01/09 10:28:21;;;;;;;17.77;10.27;;;;;;;-145.63;100.00;61273.97;4815903;29;20026;-65
2023/01/09 10:30:49;;;;;;;;;;;;;;;-145.63;100.00;61273.97;4825882;29;20041;-67
2023/01/09 10:33:24;;;;;;;16.80;10.07;;;;;;;-145.63;100.00;61273.97;4828833;29;19916;-63
2023/01/09 10:36:01;;;;;;;17.92;8.93;;;;;;;-145.63;100.00;61273.97;4816305;29;20326;-64
2023/01/09 10:38:39;;;;;;;18.08;10.57;;;;;;;-145.63;100.00;61273.97;4815598;29;20038;-64
2023/01/09 10:41:17;;;;;;;17.80;10.45;;;;;;;-145.63;100.00;61273.97;4893416;24;20062;-67
2023/01/09 10:43:55;;;;;;;19.63;10.68;;;;;;;-145.63;100.00;61273.97;4824352;29;20367;-71
2023/01/09 10:46:28;;;;;;;16.33;9.90;;;;;;;-145.63;100.00;61273.97;4817824;29;20042;-69
2023/01/09 10:48:59;;;;;;;20.23;9.68;;;;;;;-145.63;100.00;61273.97;4907294;24;20066;-66
2023/01/09 10:53:58;;;;;;;19.65;10.50;;;;;;;-145.63;100.00;61273.97;4818374;29;20096;-65
2023/01/09 10:56:32;;;;;;;17.48;10.20;;;;;;;-145.63;100.00;61273.97;4820991;29;20030;-63
2023/01/09 10:58:58;;;;;;;18.95;10.13;;;;;;;-145.63;100.00;61273.97;4813408;29;20277;-65
2023/01/09 11:01:32;;;;;;;19.42;10.85;;;;;;;-145.63;100.00;61273.97;4833868;29;20026;-64
2023/01/09 11:04:00;;;;;;;15.77;8.82;;;;;;;-145.63;100.00;61273.97;4825548;29;20026;-65
2023/01/09 11:06:35;;;;;;;19.85;10.02;;;;;;;-145.63;100.00;61273.97;4834081;29;20070;-64
2023/01/09 11:09:03;;;;;;;15.73;9.73;;;;;;;-145.63;100.00;61273.97;4831833;29;20053;-64
2023/01/09 11:11:39;;;;;;;16.58;9.95;;;;;;;-145.63;100.00;61273.97;4833920;29;20098;-64
2023/01/09 11:14:05;;;;;;;17.95;8.73;;;;;;;-145.63;100.00;61273.97;4832928;29;20045;-64
2023/01/09 11:16:31;;;;;;;17.45;10.32;;;;;;;-145.63;100.00;61273.97;4831629;29;20050;-64
2023/01/09 11:18:59;;;;;;;17.90;9.50;;;;;;;-145.63;100.00;61273.97;4823731;29;20050;-64
2023/01/09 11:21:28;;;;;;;15.00;8.45;;;;;;;-145.63;100.00;61273.97;4831393;29;20089;-64
2023/01/09 11:23:54;;;;;;;18.15;8.68;;;;;;;-145.63;100.00;61273.97;4830718;29;20037;-64
2023/01/09 11:26:27;;;;;;;18.05;9.90;;;;;;;-145.63;100.00;61273.97;4829509;29;20034;-62
2023/01/09 11:29:10;;;;;;;17.55;9.45;;;;;;;-145.63;100.00;61273.97;4831360;29;20298;-64
2023/01/09 11:31:36;;;;;;;17.98;9.88;;;;;;;-145.63;100.00;61273.97;4833572;29;20046;-64